Weather at El Espinal Airport

Public forecast

Using degrees Celsius for public forecast. Weather courtesy of forecast.io.

Closest aviation weather report (METAR) to El Espinal Airport

Report is more than 6 hours old.

Closest report is Santiago Vila Airport, 8.8 nm (16.2 km) NNE. Retrieved 2020/08/14 14:00 UTC (4 months ago):

SKGI 141400Z 00000KT 9000 SCT070 31/21 A2979 RMK HZ

Closest aviation forecast (TAF) to El Espinal Airport

Closest forecast is El Dorado International Airport, 54.5 nm (101.0 km) NE. Retrieved 2020-11-28 00:00 UTC (5 hours ago):

TAF SKBO 272230Z 2800/2824 VRB02KT 9999 SCT020 SCT080 TEMPO 2800/2803 7000 -TSRA SCT017CB TEMPO 2808/2812 3000 BR -DZ SCT010 BECMG 2815/2817 29010KT TEMPO 2819/2822 TSRA SCT017CB TX20/2818Z TN09/2811Z